Time;durP1;ratioP1;P1;durP2;ratioP2;P2;SDS_P1;SDS_P2;PMS_P1;PMS_P2;Temp;Humidity;BMP_temperature;BMP_pressure;BME280_temperature;BME280_humidity;BME280_pressure;Samples;Min_cycle;Max_cycle;Signal;HPM_P1;HPM_P2
2022/09/22 00:00:24;;;;;;;0.73;0.63;;;;;;;;;;5091806;28;20024;-41
2022/09/22 00:02:49;;;;;;;1.85;0.60;;;;;;;;;;5091923;28;20496;-41
2022/09/22 00:05:15;;;;;;;2.15;0.73;;;;;;;;;;5091463;28;20027;-41
2022/09/22 00:07:40;;;;;;;0.95;0.70;;;;;;;;;;5092009;28;20036;-41
2022/09/22 00:10:06;;;;;;;0.93;0.90;;;;;;;;;;5091534;28;20023;-41
2022/09/22 00:12:32;;;;;;;0.57;0.50;;;;;;;;;;5091578;28;20028;-41
2022/09/22 00:14:57;;;;;;;1.63;0.55;;;;;;;;;;5091606;28;20027;-41
2022/09/22 00:17:23;;;;;;;1.67;0.70;;;;;;;;;;5091428;28;20474;-41
2022/09/22 00:19:48;;;;;;;1.88;0.90;;;;;;;;;;5091587;28;20035;-41
2022/09/22 00:22:13;;;;;;;0.65;0.43;;;;;;;;;;5091292;28;20028;-41
2022/09/22 00:24:39;;;;;;;0.90;0.70;;;;;;;;;;5091436;28;20024;-41
2022/09/22 00:27:05;;;;;;;0.57;0.57;;;;;;;;;;5091324;28;20025;-41
2022/09/22 00:29:30;;;;;;;0.60;0.55;;;;;;;;;;5091320;28;20024;-41
2022/09/22 00:31:56;;;;;;;2.88;0.70;;;;;;;;;;5091638;28;20030;-41
2022/09/22 00:34:22;;;;;;;2.05;0.60;;;;;;;;;;5091505;28;20476;-41
2022/09/22 00:36:48;;;;;;;1.30;0.50;;;;;;;;;;5091348;28;20024;-41
2022/09/22 00:39:13;;;;;;;1.67;0.47;;;;;;;;;;5091483;28;20032;-41
2022/09/22 00:41:40;;;;;;;0.90;0.68;;;;;;;;;;5091146;28;20024;-41
2022/09/22 00:44:15;;;;;;;0.82;0.65;;;;;;;;;;5091432;28;20068;-41
2022/09/22 00:46:41;;;;;;;0.90;0.68;;;;;;;;;;5050978;28;20041;-41
2022/09/22 00:49:07;;;;;;;0.88;0.52;;;;;;;;;;5051188;28;20033;-41
2022/09/22 00:51:35;;;;;;;1.35;0.70;;;;;;;;;;5051012;28;20479;-41
2022/09/22 00:54:03;;;;;;;0.55;0.52;;;;;;;;;;5050943;28;20077;-41
2022/09/22 00:56:30;;;;;;;0.55;0.43;;;;;;;;;;5051135;28;20037;-41
2022/09/22 00:58:58;;;;;;;0.85;0.70;;;;;;;;;;5050766;28;20479;-41
2022/09/22 01:01:24;;;;;;;1.38;0.60;;;;;;;;;;5050776;28;20036;-42
2022/09/22 01:03:50;;;;;;;1.30;0.38;;;;;;;;;;5051105;28;20016;-41
2022/09/22 01:06:17;;;;;;;0.70;0.60;;;;;;;;;;5049544;28;20021;-41
2022/09/22 01:08:43;;;;;;;0.80;0.60;;;;;;;;;;5050766;28;20541;-41
2022/09/22 01:11:09;;;;;;;1.00;0.73;;;;;;;;;;5052128;28;20028;-41
2022/09/22 01:13:34;;;;;;;0.68;0.60;;;;;;;;;;5054737;28;20021;-41
2022/09/22 01:16:05;;;;;;;1.30;0.77;;;;;;;;;;5054610;28;20471;-41
2022/09/22 01:18:33;;;;;;;1.83;0.55;;;;;;;;;;5054454;28;20076;-41
2022/09/22 01:21:19;;;;;;;1.85;0.45;;;;;;;;;;5054808;28;20024;-41
2022/09/22 01:23:59;;;;;;;0.50;0.40;;;;;;;;;;5053181;28;20452;-43
2022/09/22 01:26:37;;;;;;;0.50;0.50;;;;;;;;;;5054341;28;20541;-41
2022/09/22 01:29:21;;;;;;;1.30;0.90;;;;;;;;;;5054461;28;20083;-41
2022/09/22 01:31:59;;;;;;;1.52;0.80;;;;;;;;;;5054182;28;20029;-41
2022/09/22 01:34:30;;;;;;;1.33;0.65;;;;;;;;;;5054462;28;20029;-41
2022/09/22 01:37:08;;;;;;;1.85;0.68;;;;;;;;;;5054532;28;20122;-41
2022/09/22 01:39:40;;;;;;;4.00;0.90;;;;;;;;;;5054071;28;20048;-41
2022/09/22 01:42:12;;;;;;;2.63;1.10;;;;;;;;;;5054047;28;20442;-42
2022/09/22 01:44:48;;;;;;;1.33;0.77;;;;;;;;;;5060581;28;20032;-41
2022/09/22 01:47:18;;;;;;;1.27;0.60;;;;;;;;;;5094518;28;20020;-41
2022/09/22 01:49:48;;;;;;;2.28;0.80;;;;;;;;;;5094260;28;20445;-41
2022/09/22 01:52:25;;;;;;;0.73;0.73;;;;;;;;;;5094125;28;20107;-41
2022/09/22 01:54:59;;;;;;;2.88;0.63;;;;;;;;;;5094060;28;20035;-41
2022/09/22 01:57:30;;;;;;;0.63;0.40;;;;;;;;;;5094082;28;20035;-41
2022/09/22 02:00:00;;;;;;;0.82;0.40;;;;;;;;;;5093908;28;20501;-41
2022/09/22 02:02:29;;;;;;;0.70;0.70;;;;;;;;;;5094225;28;20024;-41
2022/09/22 02:04:57;;;;;;;1.65;0.90;;;;;;;;;;5093838;28;20028;-41
2022/09/22 02:07:25;;;;;;;1.33;0.60;;;;;;;;;;5093740;28;20012;-41
2022/09/22 02:09:50;;;;;;;2.75;0.82;;;;;;;;;;5094092;28;20028;-41
2022/09/22 02:12:17;;;;;;;2.78;0.95;;;;;;;;;;5093655;28;20020;-41
2022/09/22 02:14:43;;;;;;;0.80;0.60;;;;;;;;;;5094030;28;20135;-41
2022/09/22 02:17:09;;;;;;;1.52;1.42;;;;;;;;;;5093530;28;20538;-41
2022/09/22 02:19:38;;;;;;;1.33;0.52;;;;;;;;;;5093598;28;20036;-41
2022/09/22 02:22:05;;;;;;;0.40;0.40;;;;;;;;;;5093628;28;20024;-41
2022/09/22 02:24:41;;;;;;;0.88;0.68;;;;;;;;;;5093480;28;20032;-41
2022/09/22 02:27:09;;;;;;;1.58;0.85;;;;;;;;;;5093412;28;20024;-41
2022/09/22 02:29:38;;;;;;;0.57;0.57;;;;;;;;;;5093481;28;20546;-41
2022/09/22 02:32:06;;;;;;;0.75;0.65;;;;;;;;;;5093703;28;20441;-42
2022/09/22 02:34:32;;;;;;;2.63;0.52;;;;;;;;;;5093234;28;20024;-41
2022/09/22 02:37:16;;;;;;;1.75;1.13;;;;;;;;;;5093632;28;20032;-41
2022/09/22 02:39:45;;;;;;;0.57;0.50;;;;;;;;;;5093138;28;20047;-41
2022/09/22 02:42:29;;;;;;;4.30;0.88;;;;;;;;;;5093346;28;20016;-41
2022/09/22 02:45:08;;;;;;;0.93;0.73;;;;;;;;;;5093187;28;20146;-41
2022/09/22 02:47:44;;;;;;;3.05;0.60;;;;;;;;;;5093369;28;20071;-41
2022/09/22 02:50:12;;;;;;;1.08;0.60;;;;;;;;;;5092963;28;20120;-41
2022/09/22 02:52:38;;;;;;;4.38;1.60;;;;;;;;;;5093040;28;20024;-41
2022/09/22 02:55:04;;;;;;;2.28;0.85;;;;;;;;;;5092935;28;20111;-40
2022/09/22 02:57:29;;;;;;;1.13;0.75;;;;;;;;;;5093094;28;20115;-41
2022/09/22 02:59:55;;;;;;;1.88;1.23;;;;;;;;;;5093079;28;20054;-41
2022/09/22 03:02:20;;;;;;;1.92;1.15;;;;;;;;;;5092641;28;20012;-41
2022/09/22 03:04:46;;;;;;;1.73;0.98;;;;;;;;;;5092791;28;20040;-41
2022/09/22 03:07:11;;;;;;;1.02;0.50;;;;;;;;;;5092581;28;20111;-41
2022/09/22 03:09:36;;;;;;;1.10;1.00;;;;;;;;;;5092756;28;20114;-41
2022/09/22 03:12:02;;;;;;;1.35;0.63;;;;;;;;;;5092517;28;20024;-41
2022/09/22 03:14:27;;;;;;;1.02;0.73;;;;;;;;;;5092506;28;20067;-41
2022/09/22 03:16:53;;;;;;;2.40;0.70;;;;;;;;;;5092473;28;20038;-41
2022/09/22 03:19:18;;;;;;;0.47;0.45;;;;;;;;;;5092248;28;20039;-41
2022/09/22 03:21:43;;;;;;;11.00;1.00;;;;;;;;;;5092487;28;20038;-41
2022/09/22 03:24:09;;;;;;;0.47;0.47;;;;;;;;;;5092591;28;20028;-41
2022/09/22 03:26:34;;;;;;;1.85;0.68;;;;;;;;;;5092342;28;20020;-41
2022/09/22 03:29:00;;;;;;;0.88;0.68;;;;;;;;;;5092352;28;20043;-41
2022/09/22 03:31:25;;;;;;;0.65;0.65;;;;;;;;;;5092189;28;20016;-41
2022/09/22 03:33:51;;;;;;;0.55;0.55;;;;;;;;;;5091993;28;20059;-41
2022/09/22 03:36:16;;;;;;;1.10;1.00;;;;;;;;;;5092350;28;20364;-41
2022/09/22 03:38:43;;;;;;;1.83;1.15;;;;;;;;;;5092244;28;20044;-41
2022/09/22 03:41:08;;;;;;;3.95;0.73;;;;;;;;;;5092043;28;20031;-41
2022/09/22 03:43:34;;;;;;;1.00;0.68;;;;;;;;;;5092321;28;20039;-42
2022/09/22 03:46:00;;;;;;;1.02;0.70;;;;;;;;;;5091850;28;20458;-42
2022/09/22 03:48:27;;;;;;;1.50;1.00;;;;;;;;;;5090634;28;20428;-41
2022/09/22 03:50:53;;;;;;;1.15;0.80;;;;;;;;;;5091848;28;20058;-41
2022/09/22 03:53:18;;;;;;;0.75;0.60;;;;;;;;;;5091884;28;20067;-41
2022/09/22 03:55:44;;;;;;;1.02;0.47;;;;;;;;;;5090644;28;20020;-41
2022/09/22 03:58:09;;;;;;;0.93;0.65;;;;;;;;;;5091661;28;20389;-41
2022/09/22 04:00:35;;;;;;;1.75;1.30;;;;;;;;;;5091976;28;20458;-41
2022/09/22 04:03:00;;;;;;;2.72;0.68;;;;;;;;;;5091783;28;20305;-41
2022/09/22 04:05:25;;;;;;;2.42;0.80;;;;;;;;;;5091761;28;20020;-41
2022/09/22 04:07:51;;;;;;;1.83;0.90;;;;;;;;;;5091912;28;20032;-41
2022/09/22 04:10:16;;;;;;;2.58;0.90;;;;;;;;;;5091475;28;20389;-41
2022/09/22 04:12:42;;;;;;;1.38;0.63;;;;;;;;;;5091884;28;20036;-41
2022/09/22 04:15:07;;;;;;;1.23;1.13;;;;;;;;;;5091477;28;20489;-41
2022/09/22 04:17:33;;;;;;;3.45;0.80;;;;;;;;;;5091515;28;20040;-41
2022/09/22 04:19:58;;;;;;;1.00;0.82;;;;;;;;;;5091428;28;20028;-41
2022/09/22 04:22:24;;;;;;;1.10;0.68;;;;;;;;;;5091469;28;20077;-41
2022/09/22 04:24:49;;;;;;;2.72;0.80;;;;;;;;;;5091417;28;20043;-41
2022/09/22 04:27:15;;;;;;;1.42;0.82;;;;;;;;;;5091324;28;20024;-41
2022/09/22 04:29:40;;;;;;;0.75;0.60;;;;;;;;;;5091709;28;20535;-41
2022/09/22 04:32:06;;;;;;;1.00;0.73;;;;;;;;;;5091639;28;20031;-42
2022/09/22 04:34:31;;;;;;;1.08;0.68;;;;;;;;;;5091201;28;20514;-41
2022/09/22 04:36:57;;;;;;;1.33;1.20;;;;;;;;;;5091581;28;20363;-40
2022/09/22 04:39:22;;;;;;;2.05;1.08;;;;;;;;;;5091168;28;20509;-41
2022/09/22 04:41:48;;;;;;;0.93;0.85;;;;;;;;;;5091250;28;20055;-41
2022/09/22 04:44:13;;;;;;;1.63;0.98;;;;;;;;;;5090945;28;20016;-42
2022/09/22 04:46:39;;;;;;;0.88;0.80;;;;;;;;;;5093687;28;20036;-41
2022/09/22 04:49:04;;;;;;;2.88;0.85;;;;;;;;;;5095701;28;20020;-41
2022/09/22 04:51:29;;;;;;;1.67;1.42;;;;;;;;;;5095217;28;20378;-41
2022/09/22 04:53:55;;;;;;;3.40;1.10;;;;;;;;;;5094334;28;20700;-41
2022/09/22 04:56:20;;;;;;;3.20;1.20;;;;;;;;;;5095127;28;20437;-41
2022/09/22 04:58:46;;;;;;;1.15;0.93;;;;;;;;;;5095104;28;20071;-41
2022/09/22 05:01:11;;;;;;;2.45;0.98;;;;;;;;;;5095032;28;20035;-41
2022/09/22 05:03:37;;;;;;;1.15;0.90;;;;;;;;;;5095351;28;20024;-40
2022/09/22 05:06:06;;;;;;;1.73;0.93;;;;;;;;;;5094951;28;20505;-41
2022/09/22 05:08:32;;;;;;;1.65;0.70;;;;;;;;;;5095320;28;20120;-41
2022/09/22 05:10:57;;;;;;;1.10;0.68;;;;;;;;;;5094941;28;20107;-41
2022/09/22 05:13:24;;;;;;;2.33;0.85;;;;;;;;;;5094863;28;20043;-41
2022/09/22 05:15:49;;;;;;;3.50;0.90;;;;;;;;;;5094976;28;20456;-41
2022/09/22 05:18:15;;;;;;;2.65;1.33;;;;;;;;;;5094555;28;20027;-41
2022/09/22 05:20:42;;;;;;;1.30;0.80;;;;;;;;;;5093565;28;20020;-42
2022/09/22 05:23:08;;;;;;;1.00;0.60;;;;;;;;;;5094796;28;20020;-42
2022/09/22 05:25:33;;;;;;;0.98;0.60;;;;;;;;;;5094714;28;20031;-42
2022/09/22 05:27:59;;;;;;;1.70;1.05;;;;;;;;;;5094602;28;20546;-42
2022/09/22 05:30:25;;;;;;;1.48;0.65;;;;;;;;;;5094531;28;20107;-42
2022/09/22 05:32:51;;;;;;;1.20;1.00;;;;;;;;;;5094470;28;20039;-42
2022/09/22 05:35:22;;;;;;;6.57;1.30;;;;;;;;;;5094423;28;20024;-42
2022/09/22 05:37:48;;;;;;;1.05;0.88;;;;;;;;;;5094370;28;20495;-42
2022/09/22 05:40:14;;;;;;;1.38;0.95;;;;;;;;;;5094604;28;20036;-42
2022/09/22 05:42:42;;;;;;;2.17;1.35;;;;;;;;;;5094599;28;20016;-42
2022/09/22 05:45:08;;;;;;;1.80;1.40;;;;;;;;;;5094398;28;20055;-42
2022/09/22 05:47:33;;;;;;;0.90;0.85;;;;;;;;;;5094413;28;20110;-42
2022/09/22 05:49:59;;;;;;;2.92;1.10;;;;;;;;;;5094159;28;20036;-42
2022/09/22 05:52:25;;;;;;;2.50;1.38;;;;;;;;;;5094442;28;20031;-42
2022/09/22 05:54:50;;;;;;;1.35;1.23;;;;;;;;;;5094066;28;20101;-42
2022/09/22 05:57:16;;;;;;;2.05;1.35;;;;;;;;;;5093501;28;20017;-42
2022/09/22 05:59:41;;;;;;;3.17;1.13;;;;;;;;;;5094067;28;20046;-42
2022/09/22 06:02:10;;;;;;;1.55;1.20;;;;;;;;;;5093821;28;20027;-42
2022/09/22 06:04:35;;;;;;;2.45;1.50;;;;;;;;;;5093981;28;20047;-42
2022/09/22 06:07:00;;;;;;;1.02;0.70;;;;;;;;;;5093930;28;20020;-42
2022/09/22 06:09:26;;;;;;;3.03;1.48;;;;;;;;;;5094337;28;20040;-42
2022/09/22 06:11:51;;;;;;;2.20;1.00;;;;;;;;;;5093799;28;20012;-41
2022/09/22 06:14:17;;;;;;;3.05;1.50;;;;;;;;;;5093703;28;20122;-42
2022/09/22 06:16:43;;;;;;;7.10;2.15;;;;;;;;;;5093711;28;20016;-41
2022/09/22 06:19:08;;;;;;;2.15;1.48;;;;;;;;;;5093763;28;20063;-42
2022/09/22 06:21:34;;;;;;;2.72;1.33;;;;;;;;;;5093514;28;20428;-42
2022/09/22 06:24:00;;;;;;;1.08;0.93;;;;;;;;;;5093481;28;20549;-42
2022/09/22 06:26:26;;;;;;;2.42;1.08;;;;;;;;;;5093694;28;20079;-42
2022/09/22 06:28:52;;;;;;;2.75;1.02;;;;;;;;;;5093456;28;20052;-42
2022/09/22 06:31:17;;;;;;;1.50;0.90;;;;;;;;;;5093558;28;20107;-42
2022/09/22 06:33:47;;;;;;;1.30;0.75;;;;;;;;;;5093445;28;20131;-42
2022/09/22 06:36:17;;;;;;;1.35;0.98;;;;;;;;;;5093354;28;20106;-42
2022/09/22 06:38:43;;;;;;;1.10;0.88;;;;;;;;;;5093266;28;20036;-42
2022/09/22 06:41:08;;;;;;;0.70;0.65;;;;;;;;;;5093554;28;20012;-42
2022/09/22 06:43:36;;;;;;;1.20;0.60;;;;;;;;;;5092985;28;20047;-42
2022/09/22 06:46:02;;;;;;;2.38;0.70;;;;;;;;;;5093068;28;20600;-42
2022/09/22 06:48:28;;;;;;;1.38;1.27;;;;;;;;;;5093094;28;20102;-42
2022/09/22 06:50:53;;;;;;;1.05;0.93;;;;;;;;;;5092951;28;20030;-42
2022/09/22 06:53:19;;;;;;;0.50;0.50;;;;;;;;;;5091669;28;20170;-42
2022/09/22 06:55:45;;;;;;;0.65;0.52;;;;;;;;;;5092943;28;20019;-42
2022/09/22 06:58:12;;;;;;;1.98;0.80;;;;;;;;;;5092784;28;20437;-42
2022/09/22 07:00:42;;;;;;;2.50;1.05;;;;;;;;;;5092899;28;20455;-42
2022/09/22 07:03:08;;;;;;;0.73;0.70;;;;;;;;;;5092743;28;20042;-42
2022/09/22 07:05:35;;;;;;;1.33;0.98;;;;;;;;;;5092597;28;20012;-41
2022/09/22 07:08:03;;;;;;;3.42;0.55;;;;;;;;;;5091902;28;20483;-42
2022/09/22 07:10:29;;;;;;;1.85;0.57;;;;;;;;;;5092428;28;20114;-42
2022/09/22 07:12:55;;;;;;;0.70;0.60;;;;;;;;;;5092891;28;20102;-42
2022/09/22 07:15:20;;;;;;;2.17;0.88;;;;;;;;;;5092423;28;20051;-42
2022/09/22 07:17:50;;;;;;;1.13;0.70;;;;;;;;;;5092613;28;20064;-42
2022/09/22 07:20:16;;;;;;;1.80;0.68;;;;;;;;;;5091044;28;20058;-41
2022/09/22 07:22:42;;;;;;;2.92;0.88;;;;;;;;;;5092824;28;20027;-42
2022/09/22 07:25:08;;;;;;;0.70;0.68;;;;;;;;;;5092528;28;20515;-42
2022/09/22 07:27:34;;;;;;;0.88;0.57;;;;;;;;;;5092026;28;20438;-42
2022/09/22 07:30:00;;;;;;;1.73;0.90;;;;;;;;;;5092420;28;20016;-42
2022/09/22 07:32:27;;;;;;;1.00;0.70;;;;;;;;;;5092563;28;20032;-42
2022/09/22 07:34:52;;;;;;;1.52;0.73;;;;;;;;;;5092161;28;20024;-42
2022/09/22 07:37:18;;;;;;;2.47;0.70;;;;;;;;;;5092382;28;20089;-42
2022/09/22 07:39:44;;;;;;;0.55;0.55;;;;;;;;;;5090750;28;20397;-43
2022/09/22 07:42:10;;;;;;;0.60;0.40;;;;;;;;;;5091994;28;20107;-42
2022/09/22 07:48:34;;;;;;;1.02;0.80;;;;;;;;;;5091961;28;20035;-42
2022/09/22 07:50:06;;;;;;;0.40;0.40;;;;;;;;;;5091922;28;20095;-42
2022/09/22 07:52:32;;;;;;;0.80;0.73;;;;;;;;;;5091867;28;20151;-42
2022/09/22 07:54:59;;;;;;;1.00;0.90;;;;;;;;;;5092085;28;20043;-42
2022/09/22 07:57:24;;;;;;;2.25;0.50;;;;;;;;;;5090584;28;20416;-42
2022/09/22 07:59:50;;;;;;;0.93;0.60;;;;;;;;;;5091695;28;20081;-42
2022/09/22 08:02:16;;;;;;;0.45;0.45;;;;;;;;;;5091959;28;20059;-42
2022/09/22 08:04:41;;;;;;;1.00;0.70;;;;;;;;;;5091718;28;20494;-42
2022/09/22 08:07:06;;;;;;;0.70;0.65;;;;;;;;;;5091778;28;20470;-42
2022/09/22 08:09:32;;;;;;;1.45;0.80;;;;;;;;;;5090297;28;20115;-42
2022/09/22 08:11:58;;;;;;;0.85;0.52;;;;;;;;;;5091582;28;20026;-42
2022/09/22 08:14:24;;;;;;;0.70;0.60;;;;;;;;;;5091592;28;20031;-43
2022/09/22 08:16:52;;;;;;;1.08;0.60;;;;;;;;;;5091777;28;20020;-45
2022/09/22 08:19:17;;;;;;;0.70;0.70;;;;;;;;;;5091426;28;20039;-42
2022/09/22 08:21:44;;;;;;;1.08;0.50;;;;;;;;;;5091535;28;20466;-42
2022/09/22 08:24:12;;;;;;;0.40;0.35;;;;;;;;;;5091722;28;20036;-42
2022/09/22 08:26:38;;;;;;;0.40;0.40;;;;;;;;;;5091680;28;20027;-42
2022/09/22 08:29:04;;;;;;;0.93;0.70;;;;;;;;;;5091822;28;20516;-42
2022/09/22 08:31:30;;;;;;;1.10;0.77;;;;;;;;;;5091415;28;20475;-43
2022/09/22 08:33:56;;;;;;;0.75;0.50;;;;;;;;;;5091449;28;20209;-43
2022/09/22 08:36:22;;;;;;;0.35;0.35;;;;;;;;;;5091337;28;20035;-42
2022/09/22 08:38:48;;;;;;;0.60;0.50;;;;;;;;;;5091232;28;20042;-41
2022/09/22 08:41:36;;;;;;;0.65;0.65;;;;;;;;;;5091183;28;20020;-42
2022/09/22 08:44:02;;;;;;;5.03;0.88;;;;;;;;;;5091266;28;20031;-42
2022/09/22 08:46:54;;;;;;;1.00;0.88;;;;;;;;;;5089712;28;20044;-42
2022/09/22 08:52:22;;;;;;;0.75;0.57;;;;;;;;;;5091405;28;20029;-42
2022/09/22 08:54:47;;;;;;;1.60;0.73;;;;;;;;;;5091178;28;20081;-42
2022/09/22 08:57:13;;;;;;;0.60;0.60;;;;;;;;;;5090239;28;20028;-42
2022/09/22 08:59:44;;;;;;;0.95;0.43;;;;;;;;;;5090999;28;20691;-42
2022/09/22 09:02:25;;;;;;;1.15;0.50;;;;;;;;;;5091076;28;20020;-42
2022/09/22 09:05:03;;;;;;;0.60;0.40;;;;;;;;;;5091011;28;20127;-42
2022/09/22 09:07:34;;;;;;;0.93;0.63;;;;;;;;;;5091013;28;20059;-42
2022/09/22 09:10:14;;;;;;;0.40;0.40;;;;;;;;;;5091024;28;20110;-42
2022/09/22 09:12:43;;;;;;;0.38;0.38;;;;;;;;;;5091057;28;20510;-42
2022/09/22 09:15:23;;;;;;;0.80;0.65;;;;;;;;;;5091010;28;20065;-42
2022/09/22 09:17:50;;;;;;;0.50;0.47;;;;;;;;;;5089705;28;20071;-42
2022/09/22 09:20:45;;;;;;;0.40;0.38;;;;;;;;;;5090966;28;20035;-46
2022/09/22 09:23:18;;;;;;;0.43;0.38;;;;;;;;;;5082040;28;20048;-42
2022/09/22 09:25:45;;;;;;;1.17;0.60;;;;;;;;;;5091047;28;20028;-42
2022/09/22 09:28:12;;;;;;;0.40;0.40;;;;;;;;;;5090857;28;20023;-42
2022/09/22 09:31:06;;;;;;;0.45;0.45;;;;;;;;;;5090798;28;20028;-42
2022/09/22 09:33:38;;;;;;;0.20;0.20;;;;;;;;;;5094375;28;20024;-42
2022/09/22 09:36:08;;;;;;;0.40;0.40;;;;;;;;;;5094820;28;20036;-42
2022/09/22 09:38:38;;;;;;;0.30;0.30;;;;;;;;;;5094374;28;20050;-42
2022/09/22 09:41:10;;;;;;;2.25;0.40;;;;;;;;;;5094459;28;20058;-42
2022/09/22 09:43:41;;;;;;;0.30;0.30;;;;;;;;;;5094289;28;20107;-42
2022/09/22 09:46:12;;;;;;;2.65;0.68;;;;;;;;;;5094272;28;20108;-42
2022/09/22 09:48:57;;;;;;;0.30;0.30;;;;;;;;;;5094085;28;20063;-42
2022/09/22 09:51:22;;;;;;;0.35;0.35;;;;;;;;;;5094512;28;20032;-42
2022/09/22 09:53:48;;;;;;;0.50;0.43;;;;;;;;;;5094463;28;20023;-42
2022/09/22 09:56:27;;;;;;;0.88;0.47;;;;;;;;;;5094172;28;20054;-42
2022/09/22 10:01:43;;;;;;;0.30;0.30;;;;;;;;;;5094002;28;20055;-41
2022/09/22 10:04:28;;;;;;;0.45;0.45;;;;;;;;;;5093896;28;20103;-42
2022/09/22 10:06:54;;;;;;;0.20;0.20;;;;;;;;;;5093937;28;20076;-42
2022/09/22 10:09:23;;;;;;;0.60;0.40;;;;;;;;;;5094044;28;20056;-42
2022/09/22 10:12:02;;;;;;;0.30;0.30;;;;;;;;;;5093825;28;20039;-42
2022/09/22 10:14:30;;;;;;;0.30;0.30;;;;;;;;;;5093661;28;20478;-42
2022/09/22 10:16:55;;;;;;;0.30;0.30;;;;;;;;;;5094043;28;20020;-43
2022/09/22 10:19:24;;;;;;;0.30;0.30;;;;;;;;;;5093688;28;20097;-42
2022/09/22 10:21:50;;;;;;;0.80;0.60;;;;;;;;;;5093642;28;20020;-42
2022/09/22 10:24:30;;;;;;;0.88;0.82;;;;;;;;;;5093482;28;20038;-43
2022/09/22 10:26:56;;;;;;;0.25;0.25;;;;;;;;;;5093741;28;20116;-42
2022/09/22 10:29:22;;;;;;;0.43;0.30;;;;;;;;;;5093758;28;20091;-42
2022/09/22 10:32:06;;;;;;;0.50;0.30;;;;;;;;;;5093394;28;20024;-42
2022/09/22 10:34:34;;;;;;;0.20;0.20;;;;;;;;;;5093635;28;20379;-42
2022/09/22 10:37:00;;;;;;;0.40;0.40;;;;;;;;;;5093449;28;20020;-42
2022/09/22 10:39:35;;;;;;;0.30;0.30;;;;;;;;;;5092140;28;20044;-42
2022/09/22 10:42:06;;;;;;;0.28;0.28;;;;;;;;;;5093339;28;20032;-42
2022/09/22 10:44:32;;;;;;;0.32;0.32;;;;;;;;;;5092958;28;20316;-42
2022/09/22 10:47:24;;;;;;;0.95;0.40;;;;;;;;;;5093051;28;20082;-42
2022/09/22 10:50:11;;;;;;;0.20;0.20;;;;;;;;;;5093346;28;20046;-41
2022/09/22 10:52:55;;;;;;;0.65;0.65;;;;;;;;;;5092948;28;20040;-42
2022/09/22 10:55:21;;;;;;;0.40;0.25;;;;;;;;;;5092962;28;20028;-42
2022/09/22 10:58:01;;;;;;;0.20;0.20;;;;;;;;;;5093000;28;20026;-42
2022/09/22 11:00:27;;;;;;;0.40;0.30;;;;;;;;;;5093014;28;20047;-42
2022/09/22 11:02:58;;;;;;;0.85;0.50;;;;;;;;;;5092881;28;20018;-42
2022/09/22 11:14:00;;;;;;;0.40;0.40;;;;;;;;;;5092788;28;20032;-42
2022/09/22 11:16:46;;;;;;;0.30;0.30;;;;;;;;;;5092787;28;20031;-42
2022/09/22 11:19:25;;;;;;;0.20;0.20;;;;;;;;;;5060073;28;20109;-42
2022/09/22 11:22:00;;;;;;;0.95;0.43;;;;;;;;;;5092765;28;20416;-42
2022/09/22 11:24:38;;;;;;;0.75;0.47;;;;;;;;;;5092414;28;20107;-42
2022/09/22 11:27:06;;;;;;;0.60;0.40;;;;;;;;;;5092448;28;20035;-42
2022/09/22 11:29:52;;;;;;;0.40;0.32;;;;;;;;;;5092223;28;20012;-42
2022/09/22 11:32:30;;;;;;;0.30;0.30;;;;;;;;;;5091872;28;20468;-42
2022/09/22 11:35:12;;;;;;;1.25;0.47;;;;;;;;;;5092346;28;20036;-42
2022/09/22 11:37:55;;;;;;;0.30;0.20;;;;;;;;;;5092102;28;20561;-42
2022/09/22 11:40:25;;;;;;;0.70;0.40;;;;;;;;;;5090585;28;20062;-42
2022/09/22 11:42:52;;;;;;;0.77;0.57;;;;;;;;;;5091947;28;20037;-42
2022/09/22 11:45:21;;;;;;;0.50;0.30;;;;;;;;;;5091807;28;20132;-42
2022/09/22 11:47:53;;;;;;;0.47;0.47;;;;;;;;;;5092029;28;20047;-42
2022/09/22 11:50:23;;;;;;;0.40;0.40;;;;;;;;;;5091871;28;20032;-42
2022/09/22 11:53:00;;;;;;;0.57;0.50;;;;;;;;;;5091695;28;20097;-42
2022/09/22 11:55:28;;;;;;;1.50;0.40;;;;;;;;;;5091384;28;20034;-42
2022/09/22 11:57:57;;;;;;;1.08;0.65;;;;;;;;;;5092043;28;20059;-42
2022/09/22 12:00:23;;;;;;;0.50;0.50;;;;;;;;;;5091642;28;20040;-42
2022/09/22 12:02:53;;;;;;;0.57;0.30;;;;;;;;;;5091850;28;20017;-42
2022/09/22 12:05:40;;;;;;;0.52;0.52;;;;;;;;;;5091712;28;20032;-42
2022/09/22 12:08:10;;;;;;;0.30;0.30;;;;;;;;;;5091776;28;20034;-42
2022/09/22 12:10:39;;;;;;;0.40;0.40;;;;;;;;;;5091852;28;20055;-42
2022/09/22 12:13:15;;;;;;;0.80;0.55;;;;;;;;;;5091626;28;20052;-42
2022/09/22 12:15:59;;;;;;;0.63;0.63;;;;;;;;;;5091649;28;20060;-44
2022/09/22 12:18:25;;;;;;;0.30;0.30;;;;;;;;;;5091386;28;20032;-42
2022/09/22 12:21:10;;;;;;;0.40;0.30;;;;;;;;;;5091515;28;20027;-42
2022/09/22 12:23:40;;;;;;;0.30;0.20;;;;;;;;;;5091683;28;20039;-42
2022/09/22 12:26:10;;;;;;;1.38;0.60;;;;;;;;;;5091421;28;20028;-43
2022/09/22 12:28:40;;;;;;;0.45;0.30;;;;;;;;;;5091336;28;20035;-42
2022/09/22 12:31:11;;;;;;;0.28;0.28;;;;;;;;;;5091449;28;20040;-42
2022/09/22 12:33:43;;;;;;;0.47;0.43;;;;;;;;;;5091449;28;20024;-42
2022/09/22 12:36:09;;;;;;;0.80;0.60;;;;;;;;;;5091379;28;20111;-42
2022/09/22 12:38:35;;;;;;;0.40;0.40;;;;;;;;;;5091234;28;20158;-42
2022/09/22 12:41:02;;;;;;;0.20;0.20;;;;;;;;;;5091302;28;20485;-42
2022/09/22 12:43:29;;;;;;;0.43;0.40;;;;;;;;;;5091294;28;20016;-42
2022/09/22 12:45:56;;;;;;;1.27;0.50;;;;;;;;;;5091119;28;20048;-42
2022/09/22 12:48:23;;;;;;;1.05;0.60;;;;;;;;;;5091387;28;20111;-42
2022/09/22 12:50:51;;;;;;;0.20;0.20;;;;;;;;;;5091199;28;20039;-42
2022/09/22 12:53:19;;;;;;;0.40;0.40;;;;;;;;;;5089928;28;20024;-42
2022/09/22 12:55:45;;;;;;;0.45;0.40;;;;;;;;;;5091231;28;20110;-42
2022/09/22 12:58:19;;;;;;;1.05;0.75;;;;;;;;;;5091138;28;20107;-42
2022/09/22 13:00:49;;;;;;;0.30;0.30;;;;;;;;;;5091428;28;20077;-42
2022/09/22 13:03:24;;;;;;;0.82;0.50;;;;;;;;;;5091409;28;20012;-42
2022/09/22 13:05:51;;;;;;;0.70;0.70;;;;;;;;;;5091167;28;20024;-42
2022/09/22 13:08:21;;;;;;;0.65;0.40;;;;;;;;;;5094535;28;20024;-42
2022/09/22 13:10:54;;;;;;;0.57;0.47;;;;;;;;;;5095143;28;20032;-42
2022/09/22 13:13:28;;;;;;;1.38;0.60;;;;;;;;;;5094825;28;20503;-42
2022/09/22 13:15:56;;;;;;;0.47;0.47;;;;;;;;;;5095229;28;20058;-42
2022/09/22 13:18:30;;;;;;;1.00;0.40;;;;;;;;;;5094712;28;20052;-42
2022/09/22 13:20:57;;;;;;;0.40;0.40;;;;;;;;;;5095151;28;20123;-42
2022/09/22 13:23:22;;;;;;;0.60;0.50;;;;;;;;;;5094554;28;20020;-47
2022/09/22 13:25:50;;;;;;;0.50;0.50;;;;;;;;;;5094745;28;20039;-42
2022/09/22 13:28:18;;;;;;;0.30;0.30;;;;;;;;;;5094827;28;20492;-42
2022/09/22 13:30:45;;;;;;;0.28;0.28;;;;;;;;;;5094598;28;20043;-43
2022/09/22 13:33:18;;;;;;;0.50;0.50;;;;;;;;;;5094951;28;20023;-42
2022/09/22 13:35:44;;;;;;;0.55;0.47;;;;;;;;;;5094449;28;20024;-42
2022/09/22 13:38:12;;;;;;;0.98;0.50;;;;;;;;;;5094525;28;20359;-42
2022/09/22 13:40:42;;;;;;;0.47;0.38;;;;;;;;;;5094368;28;20046;-42
2022/09/22 13:43:09;;;;;;;0.40;0.40;;;;;;;;;;5094419;28;20024;-42
2022/09/22 13:45:35;;;;;;;0.57;0.40;;;;;;;;;;5094169;28;20484;-42
2022/09/22 13:48:06;;;;;;;0.32;0.32;;;;;;;;;;5094295;28;20028;-42
2022/09/22 13:50:36;;;;;;;1.13;0.40;;;;;;;;;;5094461;28;20028;-42
2022/09/22 13:53:02;;;;;;;1.08;0.60;;;;;;;;;;5094264;28;20028;-42
2022/09/22 13:55:32;;;;;;;0.57;0.55;;;;;;;;;;5094162;28;20459;-42
2022/09/22 13:57:58;;;;;;;0.80;0.50;;;;;;;;;;5094109;28;20032;-42
2022/09/22 14:00:26;;;;;;;0.40;0.40;;;;;;;;;;5094246;28;20493;-42
2022/09/22 14:02:54;;;;;;;0.95;0.47;;;;;;;;;;5094068;28;20436;-42
2022/09/22 14:05:22;;;;;;;1.90;0.30;;;;;;;;;;5094253;28;20016;-42
2022/09/22 14:07:49;;;;;;;0.20;0.20;;;;;;;;;;5094267;28;20028;-42
2022/09/22 14:10:17;;;;;;;0.77;0.65;;;;;;;;;;5093880;28;20503;-42
2022/09/22 14:12:44;;;;;;;0.47;0.45;;;;;;;;;;5093727;28;20024;-42
2022/09/22 14:15:28;;;;;;;0.40;0.40;;;;;;;;;;5094082;28;20020;-42
2022/09/22 14:17:57;;;;;;;0.98;0.60;;;;;;;;;;5093320;28;20020;-42
2022/09/22 14:20:26;;;;;;;0.50;0.40;;;;;;;;;;5093378;28;20024;-42
2022/09/22 14:22:53;;;;;;;0.30;0.30;;;;;;;;;;5093708;28;20035;-42
2022/09/22 14:25:21;;;;;;;0.40;0.35;;;;;;;;;;5093619;28;20028;-42
2022/09/22 14:27:54;;;;;;;0.47;0.45;;;;;;;;;;5093545;28;20120;-42
2022/09/22 14:30:29;;;;;;;1.00;0.52;;;;;;;;;;5093479;28;20061;-42
2022/09/22 14:32:57;;;;;;;2.08;0.70;;;;;;;;;;5093407;28;20032;-42
2022/09/22 14:35:28;;;;;;;1.48;0.47;;;;;;;;;;5093631;28;20047;-42
2022/09/22 14:37:54;;;;;;;0.50;0.50;;;;;;;;;;5093715;28;20104;-42
2022/09/22 14:40:21;;;;;;;0.25;0.25;;;;;;;;;;5093116;28;20039;-42
2022/09/22 14:43:17;;;;;;;0.38;0.38;;;;;;;;;;5093534;28;20028;-43
2022/09/22 14:45:59;;;;;;;0.40;0.40;;;;;;;;;;5083990;28;20567;-42
2022/09/22 14:48:36;;;;;;;0.40;0.40;;;;;;;;;;5093071;28;20036;-42
2022/09/22 14:51:09;;;;;;;0.40;0.40;;;;;;;;;;5093132;28;20032;-42
2022/09/22 14:53:40;;;;;;;0.70;0.47;;;;;;;;;;5093403;28;20381;-43
2022/09/22 14:56:07;;;;;;;0.38;0.38;;;;;;;;;;5092939;28;20440;-42
2022/09/22 14:58:37;;;;;;;2.47;0.40;;;;;;;;;;5092966;28;20028;-42
2022/09/22 15:03:55;;;;;;;0.45;0.45;;;;;;;;;;5093151;28;20035;-42
2022/09/22 15:06:21;;;;;;;0.32;0.32;;;;;;;;;;5092805;28;20032;-42
2022/09/22 15:08:51;;;;;;;0.47;0.47;;;;;;;;;;5092803;28;20532;-42
2022/09/22 15:11:17;;;;;;;0.55;0.50;;;;;;;;;;5092583;28;20032;-42
2022/09/22 15:13:44;;;;;;;0.93;0.50;;;;;;;;;;5092667;28;20304;-43